Terminal Aerodrome Forecast
Issued by NWS Blacksburg, VA

Current Version | Previous Version | Text Only | Print | Product List | Glossary Off
Versions: 1 2 3 4 5 6 7 8 9 10 11 12 13 14 15 16 17 18 19 20 21 22 23 24 25 26 27 28 29

000
FTUS41 KRNK 140659 AAA
TAFBLF
TAF AMD
KBLF 140659Z 1407/1506 11005KT P6SM SCT005 OVC010
      TEMPO 1407/1409 3SM BR OVC005
     FM140900 18006KT 1SM BR OVC002
     FM141400 23007KT 3SM BR VCSH OVC007
     FM142000 26008KT 2SM -RA BR OVC010
     FM150100 26006KT 4SM -RA BR OVC005=

USA.gov is the U.S. government's official web portal to all federal, state and local government web resources and services.